Terminal Aerodrome Forecast
Issued by NWS

Home | Current Version | Previous Version | Text Only | Print | Product List | Glossary On
Versions: 1 2 3 4 5 6 7 8 9 10 11 12
000
FTUS45 KTFX 230500
TAFHVR
TAF
KHVR 230520Z 2306/2406 22005KT P6SM SCT150
     FM231700 25009KT P6SM SCT100 BKN150
     FM240200 13006KT P6SM SCT080 BKN150=

USA.gov is the U.S. government's official web portal to all federal, state and local government web resources and services.